Time;durP1;ratioP1;P1;durP2;ratioP2;P2;SDS_P1;SDS_P2;PMS_P1;PMS_P2;Temp;Humidity;BMP_temperature;BMP_pressure;BME280_temperature;BME280_humidity;BME280_pressure;Samples;Min_cycle;Max_cycle;Signal;HPM_P1;HPM_P2
2022/05/23 00:00:29;;;;;;;4.50;2.25;;;12.90;99.90;;;;;;4967505;28;20505;-76
2022/05/23 00:02:55;;;;;;;2.25;1.98;;;12.90;99.90;;;;;;4935714;29;20098;-75
2022/05/23 00:05:21;;;;;;;2.85;1.80;;;12.90;99.90;;;;;;4934433;29;20032;-75
2022/05/23 00:07:48;;;;;;;3.63;1.98;;;12.90;99.90;;;;;;4952373;29;20384;-76
2022/05/23 00:10:16;;;;;;;2.30;1.85;;;12.90;99.90;;;;;;4952724;28;20046;-75
2022/05/23 00:12:43;;;;;;;5.32;2.22;;;12.90;99.90;;;;;;4952451;29;20357;-75
2022/05/23 00:15:11;;;;;;;5.43;2.15;;;12.90;99.90;;;;;;4950175;29;20032;-76
2022/05/23 00:17:37;;;;;;;5.13;2.08;;;12.80;99.90;;;;;;4950799;29;20019;-76
2022/05/23 00:20:05;;;;;;;4.22;2.30;;;12.80;99.90;;;;;;4952096;28;20030;-76
2022/05/23 00:22:31;;;;;;;3.38;2.33;;;12.70;99.90;;;;;;4951677;29;20492;-76
2022/05/23 00:24:58;;;;;;;1.77;1.55;;;12.70;99.90;;;;;;4952474;29;20032;-76
2022/05/23 00:27:24;;;;;;;2.58;2.10;;;12.70;99.90;;;;;;4952159;29;20027;-76
2022/05/23 00:29:51;;;;;;;2.97;2.20;;;12.80;99.90;;;;;;4952140;29;20062;-76
2022/05/23 00:35:19;;;;;;;4.15;3.25;;;12.70;99.90;;;;;;4948724;29;20038;-76
2022/05/23 00:37:47;;;;;;;1.92;1.80;;;12.80;99.90;;;;;;4948753;29;20037;-76
2022/05/23 00:40:39;;;;;;;2.60;2.17;;;12.80;99.90;;;;;;4946650;28;20023;-76
2022/05/23 00:43:20;;;;;;;5.15;2.30;;;12.80;99.90;;;;;;4947728;29;20046;-76
2022/05/23 00:46:01;;;;;;;2.22;2.03;;;12.80;99.90;;;;;;4947269;29;20432;-76
2022/05/23 00:48:30;;;;;;;4.20;2.10;;;12.80;99.90;;;;;;4953209;29;20535;-76
2022/05/23 01:50:30;;;;;;;9.00;3.78;;;12.80;99.90;;;;;;5893743;23;23651;-76
2022/05/23 01:52:55;;;;;;;6.30;4.07;;;12.80;99.90;;;;;;4921795;29;20024;-76
2022/05/23 01:55:21;;;;;;;5.47;3.25;;;12.70;99.90;;;;;;4915645;29;20130;-77
2022/05/23 01:57:47;;;;;;;4.72;3.58;;;12.70;99.90;;;;;;4915318;29;20492;-76
2022/05/23 02:02:58;;;;;;;6.60;3.63;;;12.70;99.90;;;;;;4933593;29;20109;-76
2022/05/23 02:05:25;;;;;;;7.32;3.60;;;12.70;99.90;;;;;;4933381;29;20416;-76
2022/05/23 02:07:52;;;;;;;7.38;4.13;;;12.70;99.90;;;;;;4933171;29;20556;-76
2022/05/23 02:10:18;;;;;;;6.85;3.28;;;12.80;99.90;;;;;;4933052;29;20034;-76
2022/05/23 02:12:44;;;;;;;5.38;3.90;;;12.80;99.90;;;;;;4937143;29;20459;-76
2022/05/23 02:15:10;;;;;;;5.35;3.47;;;12.70;99.90;;;;;;4937160;29;20038;-75
2022/05/23 02:17:36;;;;;;;4.47;3.25;;;12.80;99.90;;;;;;4930766;29;20481;-76
2022/05/23 02:20:02;;;;;;;6.13;3.53;;;12.70;99.90;;;;;;4937361;29;20020;-76
2022/05/23 02:22:28;;;;;;;6.00;3.88;;;12.60;99.90;;;;;;4936840;29;20106;-76
2022/05/23 02:24:54;;;;;;;6.30;4.05;;;12.70;99.90;;;;;;4936034;29;20493;-76
2022/05/23 02:27:19;;;;;;;6.63;4.57;;;12.70;99.90;;;;;;4936902;29;20091;-76
2022/05/23 02:29:45;;;;;;;5.35;3.78;;;12.70;99.90;;;;;;4937025;29;20027;-76
2022/05/23 02:32:11;;;;;;;7.88;3.75;;;12.70;99.90;;;;;;4937149;29;20027;-76
2022/05/23 02:34:37;;;;;;;8.30;4.22;;;12.70;99.90;;;;;;4936814;29;20107;-76
2022/05/23 02:37:03;;;;;;;7.93;4.80;;;12.70;99.90;;;;;;4936701;29;20119;-76
2022/05/23 02:39:29;;;;;;;8.57;4.05;;;12.70;99.90;;;;;;4919566;29;20035;-76
2022/05/23 02:41:55;;;;;;;7.13;4.88;;;12.70;99.90;;;;;;4936611;29;20051;-76
2022/05/23 02:44:20;;;;;;;6.40;4.60;;;12.70;99.90;;;;;;4936443;29;20032;-76
2022/05/23 02:46:46;;;;;;;7.57;4.57;;;12.70;99.90;;;;;;4937071;29;20453;-77
2022/05/23 02:49:12;;;;;;;7.85;3.92;;;12.70;99.90;;;;;;4936581;29;20461;-76
2022/05/23 03:51:11;;;;;;;10.45;5.47;;;12.90;99.90;;;;;;5631876;23;20605;-76
2022/05/23 03:53:37;;;;;;;10.30;5.70;;;12.90;99.90;;;;;;4969787;28;20034;-77
2022/05/23 03:56:04;;;;;;;8.90;6.07;;;12.90;99.90;;;;;;4973382;28;20027;-77
2022/05/23 03:58:30;;;;;;;12.60;5.85;;;12.90;99.90;;;;;;4973111;28;20034;-76
2022/05/23 04:01:16;;;;;;;10.68;6.13;;;12.90;99.90;;;;;;4967413;28;20031;-76
2022/05/23 04:03:42;;;;;;;10.82;5.88;;;13.00;99.90;;;;;;4952967;29;20090;-76
2022/05/23 04:06:08;;;;;;;12.80;5.65;;;12.90;99.90;;;;;;4936114;29;20031;-76
2022/05/23 04:08:35;;;;;;;9.85;5.93;;;13.00;99.90;;;;;;4953746;29;20023;-78
2022/05/23 04:11:02;;;;;;;10.93;5.57;;;13.00;99.90;;;;;;4953853;28;20376;-76
2022/05/23 04:13:29;;;;;;;13.23;7.15;;;13.00;99.90;;;;;;4953378;29;20027;-77
2022/05/23 04:15:55;;;;;;;14.00;6.00;;;12.90;99.90;;;;;;4953858;29;20023;-78
2022/05/23 04:18:21;;;;;;;9.55;5.82;;;12.90;99.90;;;;;;4953568;29;20034;-76
2022/05/23 04:20:47;;;;;;;11.00;5.72;;;12.90;99.90;;;;;;4953203;28;20034;-77
2022/05/23 04:23:13;;;;;;;11.32;5.47;;;13.00;99.90;;;;;;4953428;29;20035;-77
2022/05/23 04:25:49;;;;;;;12.27;5.28;;;12.90;99.90;;;;;;4953259;29;20019;-76
2022/05/23 04:28:16;;;;;;;9.95;6.10;;;12.90;99.90;;;;;;4953253;29;20035;-76
2022/05/23 04:30:43;;;;;;;12.25;5.68;;;12.80;99.90;;;;;;4953003;28;20027;-76
2022/05/23 04:35:54;;;;;;;9.48;5.20;;;12.70;99.90;;;;;;4947347;29;20047;-77
2022/05/23 04:38:20;;;;;;;15.00;5.63;;;12.70;99.90;;;;;;4952815;29;20027;-78
2022/05/23 04:40:46;;;;;;;10.40;5.72;;;12.70;99.90;;;;;;4952669;28;20082;-78
2022/05/23 04:43:12;;;;;;;8.60;5.70;;;12.70;99.90;;;;;;4952997;29;20039;-78
2022/05/23 04:45:38;;;;;;;8.05;4.75;;;12.70;99.90;;;;;;4952615;29;20075;-78
2022/05/23 05:52:51;;;;;;;8.07;5.30;;;13.10;99.90;;;;;;4920469;29;20092;-79
2022/05/23 05:55:17;;;;;;;8.57;4.95;;;13.10;99.90;;;;;;4898882;29;20031;-79
2022/05/23 05:57:43;;;;;;;10.27;4.82;;;13.10;99.90;;;;;;4898431;29;20028;-80
2022/05/23 06:00:09;;;;;;;8.88;4.88;;;13.10;99.90;;;;;;4897942;29;20075;-79
2022/05/23 06:02:35;;;;;;;6.78;4.55;;;13.20;99.90;;;;;;4928912;29;20020;-80
2022/05/23 06:05:00;;;;;;;9.07;5.05;;;13.20;99.90;;;;;;4933501;29;20036;-79
2022/05/23 06:13:01;;;;;;;9.25;3.83;;;13.20;99.90;;;;;;4933730;29;20035;-80
2022/05/23 06:15:27;;;;;;;6.00;3.72;;;13.20;99.90;;;;;;4916243;29;20098;-78
2022/05/23 06:17:52;;;;;;;5.22;3.45;;;13.20;99.90;;;;;;4916375;29;20122;-79
2022/05/23 06:20:19;;;;;;;6.45;3.60;;;13.20;99.90;;;;;;4933270;29;20492;-79
2022/05/23 06:22:46;;;;;;;6.68;3.25;;;13.10;99.90;;;;;;4933088;29;20028;-79
2022/05/23 06:25:15;;;;;;;9.85;3.20;;;13.10;99.90;;;;;;4933082;29;20035;-79
2022/05/23 06:27:41;;;;;;;7.00;2.85;;;13.10;99.90;;;;;;4932648;29;20027;-79
2022/05/23 06:30:09;;;;;;;3.30;2.55;;;13.10;99.90;;;;;;4932884;29;20034;-79
2022/05/23 06:32:36;;;;;;;7.20;2.42;;;13.10;99.90;;;;;;4932162;29;20023;-79
2022/05/23 06:35:02;;;;;;;4.40;2.72;;;13.00;99.90;;;;;;4932239;29;20032;-80
2022/05/23 06:37:27;;;;;;;3.72;2.25;;;13.00;99.90;;;;;;4914797;29;20083;-79
2022/05/23 06:39:53;;;;;;;5.38;2.22;;;13.00;99.90;;;;;;4932948;29;20544;-79
2022/05/23 06:42:19;;;;;;;5.13;2.28;;;13.00;99.90;;;;;;4933290;29;20020;-79
2022/05/23 06:44:45;;;;;;;5.93;2.95;;;13.10;99.90;;;;;;4932887;29;20024;-79
2022/05/23 06:47:11;;;;;;;4.38;2.33;;;13.10;99.90;;;;;;4932624;29;20421;-79
2022/05/23 06:49:37;;;;;;;5.30;2.00;;;13.10;99.90;;;;;;4933268;29;20024;-79
2022/05/23 07:51:37;;;;;;;6.00;2.60;;;13.80;99.90;;;;;;5582553;23;19937;-79
2022/05/23 08:02:18;;;;;;;3.63;2.40;;;14.20;99.90;;;;;;4958779;28;20054;-79
2022/05/23 08:04:43;;;;;;;8.90;3.22;;;14.30;99.90;;;;;;4953667;29;20035;-79
2022/05/23 08:07:10;;;;;;;3.10;2.22;;;14.50;99.90;;;;;;4951978;29;20082;-79
2022/05/23 08:09:41;;;;;;;3.83;2.22;;;14.70;99.90;;;;;;4952402;28;20020;-79
2022/05/23 08:12:09;;;;;;;7.63;2.30;;;14.80;99.90;;;;;;4953141;28;20030;-79
2022/05/23 08:14:34;;;;;;;3.10;1.88;;;15.00;99.90;;;;;;4953250;29;20039;-79
2022/05/23 08:17:00;;;;;;;4.32;2.70;;;15.10;99.90;;;;;;4936649;29;20118;-79
2022/05/23 08:19:26;;;;;;;3.67;2.25;;;15.20;99.90;;;;;;4953167;29;20027;-79
2022/05/23 08:21:55;;;;;;;2.58;2.00;;;15.30;99.90;;;;;;4952916;28;20034;-79
2022/05/23 08:24:21;;;;;;;4.13;2.28;;;15.40;99.90;;;;;;4953657;29;20472;-79
2022/05/23 08:26:47;;;;;;;3.63;2.40;;;15.40;99.90;;;;;;4953281;29;20023;-79
2022/05/23 08:29:13;;;;;;;5.68;2.50;;;15.40;99.90;;;;;;4952908;29;20027;-79
2022/05/23 08:31:39;;;;;;;2.47;2.17;;;15.50;99.90;;;;;;4953502;28;20026;-79
2022/05/23 08:34:06;;;;;;;2.95;2.10;;;15.50;99.90;;;;;;4952845;29;20035;-79
2022/05/23 08:36:32;;;;;;;5.00;2.20;;;15.50;99.90;;;;;;4952639;29;20020;-79
2022/05/23 08:38:58;;;;;;;3.30;2.03;;;15.60;99.90;;;;;;4953399;29;20046;-79
2022/05/23 08:41:34;;;;;;;2.90;2.10;;;15.60;99.90;;;;;;4953151;28;20476;-79
2022/05/23 08:44:28;;;;;;;5.07;2.03;;;15.60;99.90;;;;;;4949050;29;20027;-79
2022/05/23 08:47:01;;;;;;;2.80;1.77;;;15.60;99.90;;;;;;4932954;29;20038;-79
2022/05/23 08:49:44;;;;;;;6.10;2.58;;;15.70;99.90;;;;;;4952863;29;20023;-79
2022/05/23 09:51:05;;;;;;;3.78;2.30;;;16.20;99.90;;;;;;5823285;23;20071;-79
2022/05/23 09:53:52;;;;;;;2.70;1.85;;;16.20;99.90;;;;;;4902223;29;20409;-79
2022/05/23 09:56:40;;;;;;;3.25;2.55;;;16.20;99.90;;;;;;4898849;29;20087;-79
2022/05/23 09:59:26;;;;;;;3.60;2.28;;;16.30;99.90;;;;;;4898512;29;20060;-79
2022/05/23 10:01:53;;;;;;;4.10;2.30;;;16.40;99.90;;;;;;4888804;29;20035;-79
2022/05/23 10:04:28;;;;;;;3.83;2.38;;;16.40;99.90;;;;;;4895395;29;20025;-79
2022/05/23 10:06:54;;;;;;;3.60;2.22;;;16.40;99.90;;;;;;4898869;29;20031;-80
2022/05/23 10:09:32;;;;;;;4.20;2.80;;;16.50;99.90;;;;;;4896265;29;20029;-79
2022/05/23 10:12:01;;;;;;;3.15;1.92;;;16.60;99.90;;;;;;4896970;29;20024;-79
2022/05/23 10:14:40;;;;;;;6.20;2.28;;;16.50;99.90;;;;;;4896572;29;20025;-79
2022/05/23 10:17:07;;;;;;;2.95;1.80;;;16.60;99.90;;;;;;4879637;29;20052;-79
2022/05/23 10:19:35;;;;;;;2.53;1.80;;;16.60;99.90;;;;;;4895221;29;20050;-79
2022/05/23 10:22:06;;;;;;;5.63;2.15;;;16.60;99.90;;;;;;4879436;29;20060;-79
2022/05/23 10:24:34;;;;;;;2.75;1.92;;;16.60;99.90;;;;;;4879799;29;20064;-79
2022/05/23 10:27:07;;;;;;;3.97;1.83;;;16.60;99.90;;;;;;4903101;29;20075;-79
2022/05/23 10:29:56;;;;;;;4.03;2.03;;;16.50;99.90;;;;;;4879933;29;20520;-79
2022/05/23 10:32:51;;;;;;;6.82;1.77;;;16.70;99.90;;;;;;4898247;29;20387;-79
2022/05/23 10:35:56;;;;;;;10.20;2.05;;;16.80;99.90;;;;;;4883278;29;20088;-79
2022/05/23 10:44:24;;;;;;;2.60;1.90;;;17.10;99.90;;;;;;4900281;29;20502;-78
2022/05/23 10:47:09;;;;;;;4.03;2.30;;;17.00;99.90;;;;;;4900158;29;20363;-78
2022/05/23 10:49:40;;;;;;;3.92;2.55;;;17.00;99.90;;;;;;4900008;29;20107;-79
2022/05/23 13:50:55;;;;;;;3.30;2.03;;;15.90;99.90;;;;;;6045542;23;20010;-78
2022/05/23 13:53:44;;;;;;;3.75;1.98;;;16.10;99.90;;;;;;4930630;29;20036;-79
2022/05/23 13:56:10;;;;;;;2.83;1.98;;;16.30;99.90;;;;;;4933740;29;20055;-78
2022/05/23 13:58:43;;;;;;;5.45;2.22;;;16.30;99.90;;;;;;4933391;29;20036;-78
2022/05/23 14:01:19;;;;;;;1.83;1.60;;;16.50;99.90;;;;;;4930441;29;20032;-79
2022/05/23 14:03:50;;;;;;;4.05;1.83;;;16.80;99.90;;;;;;4915157;29;20024;-78
2022/05/23 14:06:22;;;;;;;7.00;2.85;;;17.10;99.90;;;;;;4916075;29;20373;-78
2022/05/23 14:08:55;;;;;;;2.72;1.45;;;17.30;99.90;;;;;;4912397;29;20528;-78
2022/05/23 14:11:30;;;;;;;4.60;1.70;;;17.60;99.90;;;;;;4919175;29;20123;-78
2022/05/23 14:14:01;;;;;;;7.13;1.83;;;17.80;99.90;;;;;;4919087;29;20024;-78
2022/05/23 14:16:27;;;;;;;4.18;1.60;;;17.90;99.90;;;;;;4919115;29;20095;-78
2022/05/23 14:19:30;;;;;;;4.28;1.40;;;18.00;99.90;;;;;;4902117;29;20397;-78
2022/05/23 14:22:12;;;;;;;3.45;1.83;;;17.90;99.90;;;;;;4879358;29;20067;-78
2022/05/23 14:24:44;;;;;;;2.47;1.35;;;17.80;99.90;;;;;;4919229;29;20056;-78
2022/05/23 14:27:22;;;;;;;3.22;1.45;;;17.90;99.90;;;;;;4918773;29;20119;-77
2022/05/23 14:30:23;;;;;;;3.83;1.58;;;18.10;99.90;;;;;;4896682;29;20039;-78
2022/05/23 14:32:56;;;;;;;3.22;1.42;;;18.10;99.90;;;;;;4915726;29;20140;-78
2022/05/23 14:35:25;;;;;;;6.10;2.08;;;18.30;99.90;;;;;;4901662;29;20040;-78
2022/05/23 14:37:53;;;;;;;3.58;1.67;;;18.30;99.90;;;;;;4917856;29;20426;-77
2022/05/23 14:40:38;;;;;;;5.07;2.08;;;18.30;99.90;;;;;;4918147;29;20470;-80
2022/05/23 14:43:10;;;;;;;2.92;1.73;;;19.00;99.90;;;;;;4913367;29;20038;-79
2022/05/23 14:45:50;;;;;;;6.18;2.10;;;19.80;99.90;;;;;;4918245;29;20025;-80
2022/05/23 14:48:23;;;;;;;6.32;1.65;;;20.00;99.90;;;;;;4918059;29;20083;-79
2022/05/23 15:53:11;;;;;;;6.68;1.23;;;16.40;99.90;;;;;;5068571;23;20058;-76
2022/05/23 15:55:40;;;;;;;4.22;1.98;;;16.40;99.90;;;;;;4972979;28;20045;-78
2022/05/23 15:58:06;;;;;;;4.55;1.70;;;16.50;99.90;;;;;;4972661;28;20023;-77
2022/05/23 16:00:34;;;;;;;6.97;1.67;;;16.40;99.90;;;;;;4973628;28;20629;-77
2022/05/23 16:03:00;;;;;;;5.05;1.30;;;17.00;99.90;;;;;;4956648;28;20015;-77
2022/05/23 16:05:26;;;;;;;4.63;1.20;;;17.60;99.90;;;;;;4953953;29;20023;-78
2022/05/23 16:07:53;;;;;;;6.05;0.90;;;17.80;99.90;;;;;;4953184;29;20114;-77
2022/05/23 16:10:19;;;;;;;5.75;1.25;;;17.40;99.90;;;;;;4953408;29;20026;-77
2022/05/23 16:13:08;;;;;;;6.82;1.15;;;17.10;99.90;;;;;;4952915;28;20166;-76
2022/05/23 16:15:36;;;;;;;8.88;1.10;;;16.80;99.90;;;;;;4952900;28;20074;-78
2022/05/23 16:18:02;;;;;;;7.00;1.10;;;16.50;99.90;;;;;;4945648;29;20027;-78
2022/05/23 16:20:29;;;;;;;7.22;0.98;;;16.10;99.90;;;;;;4950013;29;20023;-77
2022/05/23 16:22:57;;;;;;;5.65;1.05;;;15.80;99.90;;;;;;4948778;28;20085;-75
2022/05/23 16:25:23;;;;;;;4.22;1.10;;;15.70;99.90;;;;;;4947129;29;20038;-75
2022/05/23 16:27:49;;;;;;;9.63;1.38;;;15.80;99.90;;;;;;4947581;29;20038;-76
2022/05/23 16:30:17;;;;;;;6.03;1.08;;;16.00;99.90;;;;;;4945231;28;20396;-76
2022/05/23 16:38:13;;;;;;;6.90;1.00;;;16.00;99.90;;;;;;4942351;29;20079;-76
2022/05/23 16:40:39;;;;;;;5.63;1.38;;;16.80;99.90;;;;;;4937438;29;20039;-77
2022/05/23 16:43:05;;;;;;;4.15;0.80;;;17.40;99.90;;;;;;4935657;29;20031;-76
2022/05/23 16:45:31;;;;;;;5.30;0.88;;;17.50;99.90;;;;;;4935270;29;20016;-76
2022/05/23 16:47:57;;;;;;;7.45;0.85;;;17.20;99.90;;;;;;4934721;29;20027;-75
2022/05/23 16:50:23;;;;;;;6.13;1.42;;;17.20;99.90;;;;;;4934554;29;20026;-76
2022/05/23 16:52:49;;;;;;;15.27;2.25;;;17.40;99.90;;;;;;4934206;28;20043;-75
2022/05/23 16:55:15;;;;;;;4.05;0.63;;;17.50;99.90;;;;;;4934690;29;20479;-76
2022/05/23 16:57:41;;;;;;;5.72;1.00;;;17.40;99.90;;;;;;4934851;29;20019;-77
2022/05/23 17:00:09;;;;;;;4.57;0.68;;;17.20;99.90;;;;;;4933537;29;20069;-76
2022/05/23 17:02:35;;;;;;;3.55;1.10;;;17.10;99.90;;;;;;4932289;28;20020;-77
2022/05/23 17:05:01;;;;;;;6.25;1.00;;;17.00;99.90;;;;;;4935300;29;20023;-78
2022/05/23 17:07:27;;;;;;;2.80;0.80;;;16.80;99.90;;;;;;4935545;29;20023;-76
2022/05/23 17:09:53;;;;;;;3.88;0.90;;;16.80;99.90;;;;;;4934441;29;20034;-76
2022/05/23 17:12:19;;;;;;;2.17;0.95;;;16.90;99.90;;;;;;4933324;28;20362;-76
2022/05/23 17:14:45;;;;;;;4.22;1.10;;;16.90;99.90;;;;;;4921589;29;20042;-75
2022/05/23 17:17:11;;;;;;;4.78;0.93;;;16.70;99.90;;;;;;4947216;29;20528;-76
2022/05/23 17:19:38;;;;;;;5.13;0.65;;;16.70;99.90;;;;;;4950807;29;20027;-75
2022/05/23 19:22:30;;;;;;;3.08;0.70;;;13.50;99.90;;;;;;5418111;23;20067;-76
2022/05/23 19:24:56;;;;;;;1.05;0.70;;;13.40;99.90;;;;;;4917233;29;20052;-76
2022/05/23 19:27:22;;;;;;;3.00;0.50;;;13.30;99.90;;;;;;4917014;29;20032;-75
2022/05/23 19:29:49;;;;;;;0.82;0.50;;;13.10;99.90;;;;;;4917078;29;20028;-76
2022/05/23 19:32:15;;;;;;;0.77;0.40;;;13.00;99.90;;;;;;4928965;29;20060;-76
2022/05/23 19:34:42;;;;;;;3.90;0.95;;;12.90;99.90;;;;;;4934917;29;20051;-76
2022/05/23 19:37:08;;;;;;;1.85;0.50;;;12.80;99.90;;;;;;4917205;29;20039;-76
2022/05/23 19:39:41;;;;;;;0.80;0.57;;;12.70;99.90;;;;;;4934732;29;20020;-77
2022/05/23 19:42:12;;;;;;;1.08;0.73;;;12.60;99.90;;;;;;4918298;29;20031;-77
2022/05/23 19:44:38;;;;;;;1.85;0.57;;;12.60;99.90;;;;;;4934400;29;20095;-76
2022/05/23 19:47:04;;;;;;;1.23;0.60;;;12.60;99.90;;;;;;4934594;29;20020;-77
2022/05/23 19:49:30;;;;;;;2.35;0.70;;;12.50;99.90;;;;;;4934554;29;20074;-76
2022/05/23 19:51:56;;;;;;;1.42;0.70;;;12.40;99.90;;;;;;4935676;29;20055;-76
2022/05/23 19:54:22;;;;;;;1.88;0.63;;;12.40;99.90;;;;;;4934989;29;20027;-77
2022/05/23 19:56:47;;;;;;;0.68;0.55;;;12.20;99.90;;;;;;4935212;29;20043;-76
2022/05/23 19:59:13;;;;;;;0.65;0.40;;;12.30;99.90;;;;;;4934668;29;20023;-78
2022/05/23 20:07:13;;;;;;;3.47;1.10;;;12.00;99.90;;;;;;4930958;29;20091;-76
2022/05/23 20:09:39;;;;;;;0.95;0.65;;;12.00;99.90;;;;;;4927142;29;20036;-76
2022/05/23 20:12:08;;;;;;;2.13;0.60;;;11.90;99.90;;;;;;4930737;29;20027;-76
2022/05/23 20:17:18;;;;;;;0.98;0.60;;;11.60;99.90;;;;;;4928681;29;20397;-75
2022/05/23 20:19:44;;;;;;;0.40;0.40;;;11.40;99.90;;;;;;4924424;29;20035;-78
2022/05/23 22:22:23;;;;;;;0.30;0.30;;;10.80;99.90;;;;;;5539430;23;20508;-75
2022/05/23 22:24:48;;;;;;;1.77;0.70;;;10.80;99.90;;;;;;4966916;28;20035;-76
2022/05/23 22:27:15;;;;;;;1.75;0.43;;;10.80;99.90;;;;;;4970172;28;20038;-75
2022/05/23 22:29:40;;;;;;;0.80;0.35;;;10.90;99.90;;;;;;4973412;28;20027;-76
2022/05/23 22:32:06;;;;;;;0.43;0.40;;;10.90;99.90;;;;;;4966709;28;20054;-76
2022/05/23 22:34:32;;;;;;;2.20;0.50;;;11.00;99.90;;;;;;4953454;29;20027;-76
2022/05/23 22:36:58;;;;;;;2.05;0.60;;;11.10;99.90;;;;;;4954877;29;20477;-76
2022/05/23 22:40:15;;;;;;;;;;;;;;;;;;;;;
2022/05/23 22:42:42;;;;;;;1.70;0.35;;;11.20;99.90;;;;;;4911356;29;20051;-75
2022/05/23 22:45:08;;;;;;;0.45;0.40;;;11.40;99.90;;;;;;4953728;29;20145;-75
2022/05/23 22:47:34;;;;;;;0.20;0.20;;;11.60;99.90;;;;;;4954513;29;20051;-74
2022/05/23 22:49:59;;;;;;;0.60;0.40;;;11.70;99.90;;;;;;4954333;29;20499;-75
2022/05/23 22:52:25;;;;;;;2.35;0.52;;;11.70;99.90;;;;;;4954629;28;20433;-75
2022/05/23 22:54:51;;;;;;;0.95;0.47;;;11.60;99.90;;;;;;4953911;29;20043;-74
2022/05/23 22:57:21;;;;;;;4.85;0.90;;;11.60;99.90;;;;;;4947348;29;20063;-74
2022/05/23 22:59:47;;;;;;;0.80;0.60;;;11.50;99.90;;;;;;4953455;29;20373;-74
2022/05/23 23:02:12;;;;;;;2.58;0.55;;;11.40;99.90;;;;;;4953610;28;20030;-74
2022/05/23 23:04:38;;;;;;;1.88;0.60;;;11.30;99.90;;;;;;4953233;29;20028;-75
2022/05/23 23:07:07;;;;;;;0.40;0.40;;;11.20;99.90;;;;;;4954504;29;20082;-74
2022/05/23 23:09:32;;;;;;;2.63;0.43;;;11.10;99.90;;;;;;4954152;29;20027;-74
2022/05/23 23:11:58;;;;;;;2.42;0.70;;;11.10;99.90;;;;;;4953811;28;20019;-75
2022/05/23 23:14:31;;;;;;;2.90;0.63;;;11.10;99.90;;;;;;4954328;29;20031;-76
2022/05/23 23:17:09;;;;;;;2.10;0.60;;;11.10;99.90;;;;;;4954415;29;20023;-76
2022/05/23 23:19:39;;;;;;;3.75;0.60;;;11.10;99.90;;;;;;4937464;29;20486;-75
2022/05/23 23:22:06;;;;;;;1.00;0.40;;;11.10;99.90;;;;;;4953475;28;20035;-75
2022/05/23 23:24:32;;;;;;;1.60;0.80;;;11.10;99.90;;;;;;4953173;29;20078;-75
2022/05/23 23:26:58;;;;;;;4.40;0.68;;;11.10;99.90;;;;;;4953677;29;20034;-75
2022/05/23 23:29:25;;;;;;;2.55;0.93;;;11.20;99.90;;;;;;4953905;29;20476;-76
2022/05/23 23:31:51;;;;;;;1.20;0.50;;;11.20;99.90;;;;;;4953335;28;20495;-76
2022/05/23 23:39:45;;;;;;;0.55;0.55;;;11.10;99.90;;;;;;4946463;29;20038;-75
2022/05/23 23:42:11;;;;;;;1.63;0.63;;;11.00;99.90;;;;;;4935754;29;20027;-76
2022/05/23 23:44:37;;;;;;;0.63;0.50;;;11.00;99.90;;;;;;4953241;29;20038;-76
2022/05/23 23:47:03;;;;;;;0.65;0.65;;;11.00;99.90;;;;;;4954032;29;20457;-76
2022/05/23 23:49:29;;;;;;;1.75;0.70;;;11.10;99.90;;;;;;4953743;29;20074;-75
2022/05/23 23:51:55;;;;;;;2.38;0.70;;;11.10;99.90;;;;;;4967275;23;20043;-82
2022/05/23 23:54:20;;;;;;;0.80;0.60;;;11.20;99.90;;;;;;4898925;29;20040;-81
2022/05/23 23:56:46;;;;;;;1.52;0.70;;;11.20;99.90;;;;;;4898035;29;20049;-82
2022/05/23 23:59:12;;;;;;;1.65;0.60;;;11.20;99.90;;;;;;4896898;29;20025;-81
